Time;durP1;ratioP1;P1;durP2;ratioP2;P2;SDS_P1;SDS_P2;PMS_P1;PMS_P2;Temp;Humidity;BMP_temperature;BMP_pressure;BME280_temperature;BME280_humidity;BME280_pressure;Samples;Min_cycle;Max_cycle;Signal;HPM_P1;HPM_P2
2021/10/19 12:45:14;;;;;;;4.90;2.85;;;19.40;99.90;;;;;;4983280;23;20342;-73
2021/10/19 12:47:41;;;;;;;4.30;2.63;;;19.50;99.90;;;;;;4953642;29;20220;-71
2021/10/19 12:50:09;;;;;;;4.00;3.00;;;19.40;99.90;;;;;;4954703;29;20212;-72
2021/10/19 12:52:35;;;;;;;4.72;3.05;;;19.30;99.90;;;;;;4954619;28;20239;-74
2021/10/19 12:55:02;;;;;;;4.50;3.03;;;19.10;99.90;;;;;;4954726;29;20211;-74
2021/10/19 12:57:29;;;;;;;5.13;3.15;;;19.10;99.90;;;;;;4954494;29;20262;-73
2021/10/19 12:59:56;;;;;;;5.28;3.13;;;19.10;99.90;;;;;;4954906;29;20208;-74
2021/10/19 13:02:26;;;;;;;5.38;3.00;;;19.10;99.90;;;;;;4954580;28;20232;-74
2021/10/19 13:04:55;;;;;;;6.72;3.08;;;19.10;99.90;;;;;;4954676;29;20212;-73
2021/10/19 13:07:22;;;;;;;6.22;2.80;;;19.00;99.90;;;;;;4954549;29;20245;-71
2021/10/19 13:09:49;;;;;;;4.85;3.22;;;19.00;99.90;;;;;;4945963;29;20204;-75
2021/10/19 13:12:16;;;;;;;4.03;3.05;;;19.00;99.90;;;;;;4934005;29;20236;-75
2021/10/19 13:14:43;;;;;;;4.50;2.57;;;19.00;99.90;;;;;;4934203;29;20259;-73
2021/10/19 13:17:10;;;;;;;5.85;2.67;;;19.00;99.90;;;;;;4934400;29;20232;-74
2021/10/19 13:19:38;;;;;;;5.25;3.22;;;19.00;99.90;;;;;;4942712;29;20610;-73
2021/10/19 13:22:05;;;;;;;5.68;3.10;;;18.90;99.90;;;;;;4956589;28;20699;-72
2021/10/19 13:24:32;;;;;;;7.55;3.35;;;18.90;99.90;;;;;;4957226;29;20220;-72
2021/10/19 13:26:59;;;;;;;4.80;3.08;;;19.00;99.90;;;;;;4956920;29;20662;-72
2021/10/19 13:29:27;;;;;;;6.20;2.90;;;19.00;99.90;;;;;;4956448;29;20211;-75
2021/10/19 13:31:54;;;;;;;4.93;3.28;;;19.00;99.90;;;;;;4956262;28;20777;-72
2021/10/19 13:34:21;;;;;;;3.80;2.60;;;19.00;99.90;;;;;;4956850;29;20208;-73
2021/10/19 13:36:51;;;;;;;4.45;2.83;;;19.00;99.90;;;;;;4956707;29;20290;-74
2021/10/19 13:39:19;;;;;;;4.15;2.75;;;19.10;99.90;;;;;;4956327;29;20251;-73
2021/10/19 13:41:47;;;;;;;3.80;2.80;;;19.20;99.90;;;;;;4957642;28;20808;-73
2021/10/19 13:44:14;;;;;;;4.30;2.90;;;19.30;99.90;;;;;;4957885;28;20226;-73
2021/10/19 13:46:41;;;;;;;5.13;3.17;;;19.50;99.90;;;;;;4957372;29;20231;-73
2021/10/19 13:49:08;;;;;;;4.68;2.97;;;19.60;99.90;;;;;;4957408;29;20303;-74
2021/10/19 13:51:35;;;;;;;4.60;3.00;;;19.70;99.90;;;;;;4957571;28;20208;-73
2021/10/19 13:54:03;;;;;;;4.78;3.17;;;19.70;99.90;;;;;;4957657;29;20204;-74
2021/10/19 13:56:30;;;;;;;5.75;2.92;;;19.80;99.90;;;;;;4957478;29;20324;-74
2021/10/19 13:58:58;;;;;;;5.82;3.10;;;19.80;99.90;;;;;;4957573;29;20218;-73
2021/10/19 14:01:25;;;;;;;4.20;2.70;;;19.80;99.90;;;;;;4957207;28;20215;-72
2021/10/19 14:03:54;;;;;;;6.15;3.03;;;19.90;99.90;;;;;;4957085;29;20203;-73
2021/10/19 14:06:22;;;;;;;4.55;2.63;;;20.00;99.90;;;;;;4957137;28;20257;-72
2021/10/19 14:08:49;;;;;;;4.57;2.75;;;20.20;99.90;;;;;;4957209;29;20204;-72
2021/10/19 14:11:17;;;;;;;4.70;2.60;;;20.10;99.90;;;;;;4957200;29;20208;-71
2021/10/19 14:13:44;;;;;;;4.97;2.58;;;19.90;99.90;;;;;;4957064;29;20591;-73
2021/10/19 14:16:11;;;;;;;4.72;2.50;;;19.80;99.90;;;;;;4956724;29;20231;-72
2021/10/19 14:18:38;;;;;;;4.57;2.97;;;19.70;99.90;;;;;;4957122;29;20214;-72
2021/10/19 14:21:04;;;;;;;3.60;2.72;;;19.90;99.90;;;;;;4957162;29;20259;-72
2021/10/19 14:23:31;;;;;;;4.80;2.90;;;19.90;99.90;;;;;;4956783;28;20724;-72
2021/10/19 14:25:58;;;;;;;4.85;2.75;;;19.90;99.90;;;;;;4956800;29;20681;-71
2021/10/19 14:28:26;;;;;;;4.18;2.28;;;19.80;99.90;;;;;;4956966;29;20214;-72
2021/10/19 14:30:53;;;;;;;3.35;2.38;;;19.80;99.90;;;;;;4955380;28;20674;-72
2021/10/19 14:33:21;;;;;;;6.70;2.75;;;19.80;99.90;;;;;;4956950;28;20234;-72
2021/10/19 14:35:47;;;;;;;4.15;3.00;;;19.90;99.90;;;;;;4956758;29;20208;-72
2021/10/19 14:38:14;;;;;;;7.47;2.90;;;19.80;99.90;;;;;;4956837;29;20239;-72
2021/10/19 14:40:41;;;;;;;5.60;3.08;;;19.60;99.90;;;;;;4956753;29;20212;-72
2021/10/19 14:43:08;;;;;;;5.18;3.20;;;19.50;99.90;;;;;;4956524;28;20236;-73
2021/10/19 14:45:36;;;;;;;6.50;3.00;;;19.40;99.90;;;;;;4956366;29;20215;-72
2021/10/19 14:48:04;;;;;;;5.72;3.28;;;19.30;99.90;;;;;;4956596;29;20215;-72
2021/10/19 14:50:30;;;;;;;5.68;3.17;;;19.20;99.90;;;;;;4956501;29;20208;-72
2021/10/19 14:52:57;;;;;;;5.45;2.58;;;19.30;99.90;;;;;;4956127;28;20227;-71
2021/10/19 14:55:24;;;;;;;4.70;3.00;;;19.30;99.90;;;;;;4956586;29;20219;-71
2021/10/19 14:57:51;;;;;;;6.13;3.00;;;19.30;99.90;;;;;;4955983;29;20242;-71
2021/10/19 15:00:19;;;;;;;5.35;3.17;;;19.30;99.90;;;;;;4956129;29;20212;-72
2021/10/19 15:02:47;;;;;;;7.18;3.10;;;19.30;99.90;;;;;;4955941;28;20224;-72
2021/10/19 15:05:14;;;;;;;5.78;3.13;;;19.30;99.90;;;;;;4955819;28;20623;-72
2021/10/19 15:07:41;;;;;;;6.18;3.35;;;19.30;99.90;;;;;;4955967;29;20263;-72
2021/10/19 15:10:09;;;;;;;5.45;2.58;;;19.20;99.90;;;;;;4955985;29;20319;-72
2021/10/19 15:12:36;;;;;;;6.00;3.10;;;19.10;99.90;;;;;;4955836;28;20762;-72
2021/10/19 15:15:03;;;;;;;5.00;3.13;;;19.10;99.90;;;;;;4956083;29;20208;-73
2021/10/19 15:17:30;;;;;;;5.97;3.30;;;19.10;99.90;;;;;;4955831;29;20639;-73
2021/10/19 15:19:58;;;;;;;5.10;2.65;;;19.10;99.90;;;;;;4956091;29;20212;-72
2021/10/19 15:22:25;;;;;;;6.85;3.40;;;19.10;99.90;;;;;;4955791;28;20312;-72
2021/10/19 15:24:52;;;;;;;6.40;3.45;;;19.10;99.90;;;;;;4955787;29;20667;-72
2021/10/19 15:27:19;;;;;;;6.63;3.28;;;19.00;99.90;;;;;;4955821;29;20690;-71
2021/10/19 15:29:46;;;;;;;5.43;3.40;;;19.00;99.90;;;;;;4955800;29;20208;-71
2021/10/19 15:32:12;;;;;;;4.75;3.05;;;19.00;99.90;;;;;;4955417;28;20726;-71
2021/10/19 15:34:39;;;;;;;6.43;3.20;;;19.00;99.90;;;;;;4955613;29;20549;-72
2021/10/19 15:37:07;;;;;;;4.93;3.35;;;18.90;99.90;;;;;;4955557;29;20326;-72
2021/10/19 15:39:34;;;;;;;5.35;3.20;;;18.90;99.90;;;;;;4955507;29;20230;-72
2021/10/19 15:42:01;;;;;;;4.70;3.30;;;19.00;99.90;;;;;;4955356;28;20314;-71
2021/10/19 15:44:28;;;;;;;5.18;3.22;;;18.90;99.90;;;;;;4955713;29;20306;-70
2021/10/19 15:46:55;;;;;;;6.00;3.42;;;18.90;99.90;;;;;;4951282;29;20219;-71
2021/10/19 15:49:22;;;;;;;5.05;3.15;;;18.80;99.90;;;;;;4955320;29;20211;-71
2021/10/19 15:51:48;;;;;;;5.72;3.67;;;18.80;99.90;;;;;;4955150;28;20230;-71
2021/10/19 15:54:17;;;;;;;6.00;3.60;;;18.70;99.90;;;;;;4955404;29;20208;-73
2021/10/19 15:56:44;;;;;;;5.20;3.17;;;18.80;99.90;;;;;;4955061;29;20231;-70
2021/10/19 15:59:12;;;;;;;5.97;3.60;;;18.80;99.90;;;;;;4955063;29;20207;-71
2021/10/19 16:01:39;;;;;;;6.57;3.75;;;18.70;99.90;;;;;;4955034;29;20234;-72
2021/10/19 16:04:06;;;;;;;6.20;3.15;;;18.60;99.90;;;;;;4955067;29;20259;-71
2021/10/19 16:06:33;;;;;;;5.90;3.70;;;18.60;99.90;;;;;;4954946;29;20203;-72
2021/10/19 16:09:00;;;;;;;8.30;3.67;;;18.60;99.90;;;;;;4954723;28;20204;-70
2021/10/19 16:11:29;;;;;;;7.53;3.90;;;18.50;99.90;;;;;;4955074;29;20214;-71
2021/10/19 16:13:55;;;;;;;5.43;3.60;;;18.40;99.90;;;;;;4955086;29;20208;-70
2021/10/19 16:16:22;;;;;;;5.90;3.50;;;18.40;99.90;;;;;;4954112;29;20567;-71
2021/10/19 16:18:49;;;;;;;6.50;3.40;;;18.40;99.90;;;;;;4951319;29;20981;-70
2021/10/19 16:21:16;;;;;;;8.50;3.57;;;18.50;99.90;;;;;;4935386;29;20208;-71
2021/10/19 16:23:43;;;;;;;4.90;3.07;;;18.30;99.90;;;;;;4935507;29;20231;-72
2021/10/19 16:26:10;;;;;;;5.20;3.30;;;18.30;99.90;;;;;;4943545;29;20204;-73
2021/10/19 16:28:38;;;;;;;5.37;3.33;;;18.20;99.90;;;;;;4955213;29;20215;-73
2021/10/19 16:31:05;;;;;;;9.07;3.90;;;18.10;99.90;;;;;;4954573;29;20211;-73
2021/10/19 16:33:31;;;;;;;6.83;3.70;;;18.20;99.90;;;;;;4954077;29;20710;-75
2021/10/19 16:35:58;;;;;;;5.77;3.43;;;18.00;99.90;;;;;;4953624;29;20675;-74
2021/10/19 16:38:25;;;;;;;7.15;3.80;;;18.00;99.90;;;;;;4954030;29;20330;-73
2021/10/19 16:40:52;;;;;;;7.40;3.43;;;18.00;99.90;;;;;;4953982;29;20658;-75
2021/10/19 16:43:19;;;;;;;5.07;3.17;;;18.10;99.90;;;;;;4953654;29;20231;-72
2021/10/19 16:45:47;;;;;;;7.53;3.77;;;18.00;99.90;;;;;;4953691;29;20222;-75
2021/10/19 16:48:14;;;;;;;9.03;3.87;;;17.90;99.90;;;;;;4953729;29;20219;-75
2021/10/19 16:50:41;;;;;;;7.07;4.07;;;17.90;99.90;;;;;;4953997;29;20241;-73
2021/10/19 16:53:07;;;;;;;4.87;3.20;;;17.90;99.90;;;;;;4953745;28;20314;-72
2021/10/19 16:55:34;;;;;;;5.80;3.77;;;17.80;99.90;;;;;;4958093;29;20235;-73
2021/10/19 16:58:01;;;;;;;5.77;3.77;;;17.80;99.90;;;;;;4957619;29;20808;-73
2021/10/19 17:00:28;;;;;;;5.40;3.03;;;17.70;99.90;;;;;;4957899;29;20218;-72
2021/10/19 17:02:56;;;;;;;6.03;3.40;;;17.60;99.90;;;;;;4957540;29;20232;-72
2021/10/19 17:05:23;;;;;;;6.27;3.10;;;17.60;99.90;;;;;;4957635;29;20207;-71
2021/10/19 17:07:50;;;;;;;4.20;3.00;;;17.60;99.90;;;;;;4957840;29;20204;-71
2021/10/19 17:10:16;;;;;;;5.23;3.57;;;17.60;99.90;;;;;;4957541;29;20223;-71
2021/10/19 17:12:43;;;;;;;7.87;3.70;;;17.60;99.90;;;;;;4957708;29;20228;-71
2021/10/19 17:15:10;;;;;;;4.60;2.90;;;17.50;99.90;;;;;;4957885;29;20218;-74
2021/10/19 17:17:37;;;;;;;5.07;2.67;;;17.40;99.90;;;;;;4938192;29;20228;-71
2021/10/19 17:20:07;;;;;;;5.43;3.23;;;17.50;99.90;;;;;;4938305;29;20200;-72
2021/10/19 17:22:34;;;;;;;5.20;3.17;;;17.40;99.90;;;;;;4938364;29;20239;-73
2021/10/19 17:25:02;;;;;;;4.93;2.60;;;17.50;99.90;;;;;;4938258;29;20209;-71
2021/10/19 17:27:29;;;;;;;5.00;2.80;;;17.40;99.90;;;;;;4956307;29;20215;-72
2021/10/19 17:29:56;;;;;;;6.93;3.30;;;17.40;99.90;;;;;;4957493;29;20211;-73
2021/10/19 17:32:23;;;;;;;4.80;2.90;;;17.40;99.90;;;;;;4957259;29;20228;-73
2021/10/19 17:34:49;;;;;;;5.33;2.67;;;17.50;99.90;;;;;;4957498;29;20762;-72
2021/10/19 17:37:18;;;;;;;4.20;2.70;;;17.50;99.90;;;;;;4956814;29;20239;-74
2021/10/19 17:39:46;;;;;;;4.60;2.90;;;17.50;99.90;;;;;;4957424;29;20665;-73
2021/10/19 17:42:12;;;;;;;4.67;2.73;;;17.50;99.90;;;;;;4957244;28;20232;-73
2021/10/19 17:44:39;;;;;;;5.13;2.77;;;17.40;99.90;;;;;;4957265;29;20310;-73
2021/10/19 17:47:07;;;;;;;6.40;3.27;;;17.50;99.90;;;;;;4956765;29;20220;-73
2021/10/19 17:49:33;;;;;;;5.10;2.87;;;17.50;99.90;;;;;;4956859;29;20302;-74
2021/10/19 17:52:00;;;;;;;3.53;2.60;;;17.50;99.90;;;;;;4957380;29;20228;-73
2021/10/19 17:54:28;;;;;;;4.47;2.80;;;17.40;99.90;;;;;;4956781;29;20212;-74
2021/10/19 17:56:55;;;;;;;6.00;2.73;;;17.40;99.90;;;;;;4956967;29;20558;-74
2021/10/19 17:59:22;;;;;;;5.57;2.67;;;17.40;99.90;;;;;;4956474;29;20243;-73
2021/10/19 18:01:49;;;;;;;10.30;3.03;;;17.40;99.90;;;;;;4956743;28;20699;-73
2021/10/19 18:04:16;;;;;;;4.70;2.83;;;17.50;99.90;;;;;;4956610;28;20204;-72
2021/10/19 18:06:43;;;;;;;5.97;3.00;;;17.40;99.90;;;;;;4956417;29;20204;-74
2021/10/19 18:09:10;;;;;;;3.93;2.50;;;17.30;99.90;;;;;;4956744;29;20235;-73
2021/10/19 18:11:38;;;;;;;7.87;2.57;;;17.30;99.90;;;;;;4956659;28;20222;-73
2021/10/19 18:14:06;;;;;;;3.57;2.27;;;17.20;99.90;;;;;;4957028;29;20216;-73
2021/10/19 18:16:34;;;;;;;3.30;2.47;;;17.30;99.90;;;;;;4955964;29;20211;-74
2021/10/19 18:19:01;;;;;;;3.80;2.17;;;17.30;99.90;;;;;;4956471;29;20236;-74
2021/10/19 18:21:28;;;;;;;3.17;2.20;;;17.40;99.90;;;;;;4956221;29;20658;-74
2021/10/19 18:23:55;;;;;;;4.67;2.10;;;17.40;99.90;;;;;;4956450;29;20662;-75
2021/10/19 18:26:23;;;;;;;4.27;2.10;;;17.40;99.90;;;;;;4956093;28;20336;-72
2021/10/19 18:28:52;;;;;;;3.90;2.20;;;17.40;99.90;;;;;;4956336;29;20211;-73
2021/10/19 18:31:19;;;;;;;3.90;2.27;;;17.40;99.90;;;;;;4955705;28;20212;-73
2021/10/19 18:33:47;;;;;;;4.03;2.53;;;17.40;99.90;;;;;;4956053;29;20214;-73
2021/10/19 18:36:14;;;;;;;4.00;2.60;;;17.40;99.90;;;;;;4955967;29;20399;-73
2021/10/19 18:38:41;;;;;;;3.87;2.50;;;17.40;99.90;;;;;;4955686;29;20250;-73
2021/10/19 18:41:08;;;;;;;3.43;2.33;;;17.40;99.90;;;;;;4956145;29;20200;-74
2021/10/19 18:43:36;;;;;;;3.47;2.00;;;17.50;99.90;;;;;;4956642;29;20323;-75
2021/10/19 18:46:04;;;;;;;5.10;2.23;;;17.50;99.90;;;;;;4955936;29;20260;-73
2021/10/19 18:48:31;;;;;;;3.47;2.13;;;17.50;99.90;;;;;;4955767;29;20678;-73
2021/10/19 18:50:58;;;;;;;2.77;2.03;;;17.40;99.90;;;;;;4955796;29;20222;-72
2021/10/19 18:53:26;;;;;;;2.40;1.60;;;17.40;99.90;;;;;;4955771;29;20239;-76
2021/10/19 18:55:53;;;;;;;2.90;1.57;;;17.40;99.90;;;;;;4955701;29;20208;-73
2021/10/19 18:58:20;;;;;;;3.80;2.07;;;17.40;99.90;;;;;;4955364;29;20232;-72
2021/10/19 19:00:46;;;;;;;5.67;2.17;;;17.40;99.90;;;;;;4955500;29;20204;-74
2021/10/19 19:03:15;;;;;;;2.93;1.93;;;17.40;99.90;;;;;;4955695;29;20232;-73
2021/10/19 19:05:42;;;;;;;2.40;1.80;;;17.40;99.90;;;;;;4955580;29;20260;-73
2021/10/19 19:08:10;;;;;;;2.50;1.70;;;17.40;99.90;;;;;;4953671;29;20204;-71
2021/10/19 19:10:37;;;;;;;2.57;1.80;;;17.40;99.90;;;;;;4956296;28;20211;-72
2021/10/19 19:13:03;;;;;;;2.20;1.57;;;17.50;99.90;;;;;;4956083;28;20586;-72
2021/10/19 19:15:30;;;;;;;4.03;2.00;;;17.40;99.90;;;;;;4956063;28;20215;-73
2021/10/19 19:17:57;;;;;;;4.17;1.87;;;17.30;99.90;;;;;;4955118;29;20238;-73
2021/10/19 19:20:32;;;;;;;3.00;1.67;;;17.30;99.90;;;;;;4955994;29;20211;-72
2021/10/19 19:23:00;;;;;;;2.70;1.50;;;17.30;99.90;;;;;;4955943;28;20291;-71
2021/10/19 19:25:28;;;;;;;2.17;1.63;;;17.30;99.90;;;;;;4956140;29;20259;-71
2021/10/19 19:27:56;;;;;;;2.13;1.43;;;17.30;99.90;;;;;;4955815;29;20216;-72
2021/10/19 19:30:24;;;;;;;2.80;1.60;;;17.30;99.90;;;;;;4955802;29;20214;-72
2021/10/19 19:32:53;;;;;;;2.53;1.50;;;17.30;99.90;;;;;;4955376;28;20224;-73
2021/10/19 19:35:20;;;;;;;4.70;1.67;;;17.30;99.90;;;;;;4955697;28;20698;-72
2021/10/19 19:37:49;;;;;;;2.97;1.63;;;17.30;99.90;;;;;;4955832;29;20235;-72
2021/10/19 19:40:17;;;;;;;5.33;1.70;;;17.30;99.90;;;;;;4955788;29;20211;-72
2021/10/19 19:42:44;;;;;;;2.00;1.40;;;17.30;99.90;;;;;;4955561;28;20228;-71
2021/10/19 19:45:14;;;;;;;1.97;1.63;;;17.40;99.90;;;;;;4955623;29;20212;-72
2021/10/19 19:47:43;;;;;;;1.80;1.40;;;17.40;99.90;;;;;;4955357;29;20214;-71
2021/10/19 19:50:10;;;;;;;3.13;1.90;;;17.40;99.90;;;;;;4955817;29;20212;-74
2021/10/19 19:52:37;;;;;;;2.27;1.50;;;17.40;99.90;;;;;;4955591;28;20227;-73
2021/10/19 19:55:05;;;;;;;1.80;1.20;;;17.40;99.90;;;;;;4955384;28;20302;-71
2021/10/19 19:57:32;;;;;;;2.10;1.20;;;17.40;99.90;;;;;;4955607;28;20204;-72
2021/10/19 19:59:59;;;;;;;1.70;1.00;;;17.40;99.90;;;;;;4955082;29;20267;-73
2021/10/19 20:02:27;;;;;;;2.00;1.40;;;17.40;99.90;;;;;;4954957;28;20778;-71
2021/10/19 20:04:53;;;;;;;2.47;1.40;;;17.40;99.90;;;;;;4955182;29;20267;-73
2021/10/19 20:07:20;;;;;;;2.20;1.40;;;17.40;99.90;;;;;;4955275;29;20218;-72
2021/10/19 20:09:47;;;;;;;1.57;1.07;;;17.30;99.90;;;;;;4955424;29;20298;-74
2021/10/19 20:12:15;;;;;;;2.10;1.50;;;17.20;99.90;;;;;;4955182;28;20230;-72
2021/10/19 20:14:42;;;;;;;3.20;1.40;;;17.30;99.90;;;;;;4955018;29;20295;-73
2021/10/19 20:17:09;;;;;;;2.53;1.30;;;17.30;99.90;;;;;;4954787;29;20220;-72
2021/10/19 20:19:36;;;;;;;1.70;1.10;;;17.20;99.90;;;;;;4954808;29;20236;-73
2021/10/19 20:22:03;;;;;;;1.33;1.00;;;17.30;99.90;;;;;;4954975;28;20319;-72
2021/10/19 20:24:31;;;;;;;1.30;1.10;;;17.30;99.90;;;;;;4954927;29;20203;-72
2021/10/19 20:26:58;;;;;;;1.60;1.13;;;17.30;99.90;;;;;;4954891;29;20204;-70
2021/10/19 20:29:26;;;;;;;1.80;1.20;;;17.20;99.90;;;;;;4954639;28;20556;-72
2021/10/19 20:31:53;;;;;;;2.60;1.40;;;17.20;99.90;;;;;;4955027;28;20318;-72
2021/10/19 20:34:20;;;;;;;2.10;1.03;;;17.20;99.90;;;;;;4955109;28;20706;-70
2021/10/19 20:36:47;;;;;;;1.57;1.17;;;17.10;99.90;;;;;;4954719;29;20762;-71
2021/10/19 20:39:13;;;;;;;1.80;1.20;;;17.20;99.90;;;;;;4954787;29;20236;-71
2021/10/19 20:41:40;;;;;;;1.90;1.27;;;17.20;99.90;;;;;;4954640;28;20231;-72
2021/10/19 20:44:07;;;;;;;2.27;1.13;;;17.10;99.90;;;;;;4955184;29;20634;-73
2021/10/19 20:46:36;;;;;;;2.73;1.10;;;17.20;99.90;;;;;;4954583;29;20216;-70
2021/10/19 20:49:03;;;;;;;2.30;1.27;;;17.20;99.90;;;;;;4954709;29;20219;-70
2021/10/19 20:51:30;;;;;;;1.53;1.10;;;17.30;99.90;;;;;;4954506;28;20211;-71
2021/10/19 20:53:58;;;;;;;3.70;1.07;;;17.30;99.90;;;;;;4954687;29;20579;-70
2021/10/19 20:56:25;;;;;;;1.10;1.00;;;17.30;99.90;;;;;;4954794;29;20571;-71
